sensor_id;sensor_type;location;lat;lon;timestamp;P1;P2;P0
48887;PMS5003;42598;53.802;-1.632;2023-01-29T00:00:26;8;6;
48887;PMS5003;42598;53.802;-1.632;2023-01-29T00:02:53;3;3;
48887;PMS5003;42598;53.802;-1.632;2023-01-29T00:05:20;5;5;
48887;PMS5003;42598;53.802;-1.632;2023-01-29T00:07:47;5;5;
48887;PMS5003;42598;53.802;-1.632;2023-01-29T00:10:14;4;3;
48887;PMS5003;42598;53.802;-1.632;2023-01-29T00:12:41;5;5;
48887;PMS5003;42598;53.802;-1.632;2023-01-29T00:15:08;6;5;
48887;PMS5003;42598;53.802;-1.632;2023-01-29T00:17:35;8;6;
48887;PMS5003;42598;53.802;-1.632;2023-01-29T00:20:02;5;4;
48887;PMS5003;42598;53.802;-1.632;2023-01-29T00:22:29;4;4;
48887;PMS5003;42598;53.802;-1.632;2023-01-29T00:24:56;3;3;
48887;PMS5003;42598;53.802;-1.632;2023-01-29T00:27:23;4;4;
48887;PMS5003;42598;53.802;-1.632;2023-01-29T00:29:51;3;3;
48887;PMS5003;42598;53.802;-1.632;2023-01-29T00:32:18;4;4;
48887;PMS5003;42598;53.802;-1.632;2023-01-29T00:34:45;5;5;
48887;PMS5003;42598;53.802;-1.632;2023-01-29T00:37:12;4;4;
48887;PMS5003;42598;53.802;-1.632;2023-01-29T00:39:40;4;4;
48887;PMS5003;42598;53.802;-1.632;2023-01-29T00:42:07;4;4;
48887;PMS5003;42598;53.802;-1.632;2023-01-29T00:44:33;6;5;
48887;PMS5003;42598;53.802;-1.632;2023-01-29T00:47:01;6;6;
48887;PMS5003;42598;53.802;-1.632;2023-01-29T00:49:28;5;5;
48887;PMS5003;42598;53.802;-1.632;2023-01-29T00:52:00;7;7;
48887;PMS5003;42598;53.802;-1.632;2023-01-29T00:54:27;7;7;
48887;PMS5003;42598;53.802;-1.632;2023-01-29T00:56:53;7;6;
48887;PMS5003;42598;53.802;-1.632;2023-01-29T00:59:20;7;7;
48887;PMS5003;42598;53.802;-1.632;2023-01-29T01:01:48;8;6;
48887;PMS5003;42598;53.802;-1.632;2023-01-29T01:04:14;9;8;
48887;PMS5003;42598;53.802;-1.632;2023-01-29T01:06:41;7;7;
48887;PMS5003;42598;53.802;-1.632;2023-01-29T01:09:09;9;9;
48887;PMS5003;42598;53.802;-1.632;2023-01-29T01:11:36;8;7;
48887;PMS5003;42598;53.802;-1.632;2023-01-29T01:14:03;6;6;
48887;PMS5003;42598;53.802;-1.632;2023-01-29T01:16:29;8;7;
48887;PMS5003;42598;53.802;-1.632;2023-01-29T01:18:56;10;8;
48887;PMS5003;42598;53.802;-1.632;2023-01-29T01:21:23;10;10;
48887;PMS5003;42598;53.802;-1.632;2023-01-29T01:23:51;9;8;
48887;PMS5003;42598;53.802;-1.632;2023-01-29T01:26:18;8;8;
48887;PMS5003;42598;53.802;-1.632;2023-01-29T01:28:44;9;8;
48887;PMS5003;42598;53.802;-1.632;2023-01-29T01:31:12;8;7;
48887;PMS5003;42598;53.802;-1.632;2023-01-29T01:33:40;6;6;
48887;PMS5003;42598;53.802;-1.632;2023-01-29T01:36:07;6;6;
48887;PMS5003;42598;53.802;-1.632;2023-01-29T01:38:35;8;8;
48887;PMS5003;42598;53.802;-1.632;2023-01-29T01:41:02;9;8;
48887;PMS5003;42598;53.802;-1.632;2023-01-29T01:43:45;8;7;
48887;PMS5003;42598;53.802;-1.632;2023-01-29T01:46:13;8;8;
48887;PMS5003;42598;53.802;-1.632;2023-01-29T01:48:40;7;7;
48887;PMS5003;42598;53.802;-1.632;2023-01-29T01:51:07;9;8;
48887;PMS5003;42598;53.802;-1.632;2023-01-29T01:53:36;7;7;
48887;PMS5003;42598;53.802;-1.632;2023-01-29T01:56:07;7;7;
48887;PMS5003;42598;53.802;-1.632;2023-01-29T01:58:40;6;6;
48887;PMS5003;42598;53.802;-1.632;2023-01-29T02:01:09;7;7;
48887;PMS5003;42598;53.802;-1.632;2023-01-29T02:03:40;8;7;
48887;PMS5003;42598;53.802;-1.632;2023-01-29T02:06:11;7;7;
48887;PMS5003;42598;53.802;-1.632;2023-01-29T02:08:41;8;8;
48887;PMS5003;42598;53.802;-1.632;2023-01-29T02:11:13;8;8;
48887;PMS5003;42598;53.802;-1.632;2023-01-29T02:13:40;5;5;
48887;PMS5003;42598;53.802;-1.632;2023-01-29T02:16:07;6;6;
48887;PMS5003;42598;53.802;-1.632;2023-01-29T02:18:35;8;6;
48887;PMS5003;42598;53.802;-1.632;2023-01-29T02:21:06;8;8;
48887;PMS5003;42598;53.802;-1.632;2023-01-29T02:23:49;7;7;
48887;PMS5003;42598;53.802;-1.632;2023-01-29T02:26:39;8;8;
48887;PMS5003;42598;53.802;-1.632;2023-01-29T02:29:19;8;7;
48887;PMS5003;42598;53.802;-1.632;2023-01-29T02:31:55;6;6;
48887;PMS5003;42598;53.802;-1.632;2023-01-29T02:34:32;10;9;
48887;PMS5003;42598;53.802;-1.632;2023-01-29T02:37:08;10;10;
48887;PMS5003;42598;53.802;-1.632;2023-01-29T02:39:39;10;9;
48887;PMS5003;42598;53.802;-1.632;2023-01-29T02:42:17;13;12;
48887;PMS5003;42598;53.802;-1.632;2023-01-29T02:44:54;11;10;
48887;PMS5003;42598;53.802;-1.632;2023-01-29T02:47:26;8;7;
48887;PMS5003;42598;53.802;-1.632;2023-01-29T02:50:02;6;6;
48887;PMS5003;42598;53.802;-1.632;2023-01-29T02:52:39;6;6;
48887;PMS5003;42598;53.802;-1.632;2023-01-29T02:55:15;5;4;
48887;PMS5003;42598;53.802;-1.632;2023-01-29T02:57:46;4;4;
48887;PMS5003;42598;53.802;-1.632;2023-01-29T03:00:18;3;2;
48887;PMS5003;42598;53.802;-1.632;2023-01-29T03:02:48;3;2;
48887;PMS5003;42598;53.802;-1.632;2023-01-29T03:05:20;3;2;
48887;PMS5003;42598;53.802;-1.632;2023-01-29T03:07:55;2;2;
48887;PMS5003;42598;53.802;-1.632;2023-01-29T03:10:27;2;1;
48887;PMS5003;42598;53.802;-1.632;2023-01-29T03:12:59;1;1;
48887;PMS5003;42598;53.802;-1.632;2023-01-29T03:15:32;3;2;
48887;PMS5003;42598;53.802;-1.632;2023-01-29T03:18:07;3;3;
48887;PMS5003;42598;53.802;-1.632;2023-01-29T03:20:38;4;4;
48887;PMS5003;42598;53.802;-1.632;2023-01-29T03:23:10;2;2;
48887;PMS5003;42598;53.802;-1.632;2023-01-29T03:25:42;4;4;
48887;PMS5003;42598;53.802;-1.632;2023-01-29T03:28:11;4;3;
48887;PMS5003;42598;53.802;-1.632;2023-01-29T03:30:42;2;2;
48887;PMS5003;42598;53.802;-1.632;2023-01-29T03:33:14;2;2;
48887;PMS5003;42598;53.802;-1.632;2023-01-29T03:35:46;3;3;
48887;PMS5003;42598;53.802;-1.632;2023-01-29T03:38:18;3;2;
48887;PMS5003;42598;53.802;-1.632;2023-01-29T03:40:47;3;3;
48887;PMS5003;42598;53.802;-1.632;2023-01-29T03:43:19;3;3;
48887;PMS5003;42598;53.802;-1.632;2023-01-29T03:45:58;3;3;
48887;PMS5003;42598;53.802;-1.632;2023-01-29T03:48:30;2;2;
48887;PMS5003;42598;53.802;-1.632;2023-01-29T03:51:08;4;4;
48887;PMS5003;42598;53.802;-1.632;2023-01-29T03:53:42;5;5;
48887;PMS5003;42598;53.802;-1.632;2023-01-29T03:56:17;5;4;
48887;PMS5003;42598;53.802;-1.632;2023-01-29T03:58:59;5;4;
48887;PMS5003;42598;53.802;-1.632;2023-01-29T04:01:30;5;5;
48887;PMS5003;42598;53.802;-1.632;2023-01-29T04:04:07;6;6;
48887;PMS5003;42598;53.802;-1.632;2023-01-29T04:06:40;7;6;
48887;PMS5003;42598;53.802;-1.632;2023-01-29T04:09:12;4;4;
48887;PMS5003;42598;53.802;-1.632;2023-01-29T04:11:44;4;4;
48887;PMS5003;42598;53.802;-1.632;2023-01-29T04:14:15;6;5;
48887;PMS5003;42598;53.802;-1.632;2023-01-29T04:16:44;6;5;
48887;PMS5003;42598;53.802;-1.632;2023-01-29T04:19:16;7;6;
48887;PMS5003;42598;53.802;-1.632;2023-01-29T04:21:43;7;5;
48887;PMS5003;42598;53.802;-1.632;2023-01-29T04:24:15;6;4;
48887;PMS5003;42598;53.802;-1.632;2023-01-29T04:26:48;5;5;
48887;PMS5003;42598;53.802;-1.632;2023-01-29T04:29:26;6;6;
48887;PMS5003;42598;53.802;-1.632;2023-01-29T04:32:05;5;4;
48887;PMS5003;42598;53.802;-1.632;2023-01-29T04:34:43;4;3;
48887;PMS5003;42598;53.802;-1.632;2023-01-29T04:37:21;6;5;
48887;PMS5003;42598;53.802;-1.632;2023-01-29T04:39:55;4;4;
48887;PMS5003;42598;53.802;-1.632;2023-01-29T04:42:29;5;4;
48887;PMS5003;42598;53.802;-1.632;2023-01-29T04:45:03;6;5;
48887;PMS5003;42598;53.802;-1.632;2023-01-29T04:47:39;4;4;
48887;PMS5003;42598;53.802;-1.632;2023-01-29T04:50:16;8;7;
48887;PMS5003;42598;53.802;-1.632;2023-01-29T04:52:53;6;6;
48887;PMS5003;42598;53.802;-1.632;2023-01-29T04:55:27;7;6;
48887;PMS5003;42598;53.802;-1.632;2023-01-29T04:58:04;7;7;
48887;PMS5003;42598;53.802;-1.632;2023-01-29T05:00:39;7;6;
48887;PMS5003;42598;53.802;-1.632;2023-01-29T05:03:08;5;5;
48887;PMS5003;42598;53.802;-1.632;2023-01-29T05:05:38;6;5;
48887;PMS5003;42598;53.802;-1.632;2023-01-29T05:08:07;10;8;
48887;PMS5003;42598;53.802;-1.632;2023-01-29T05:10:37;6;5;
48887;PMS5003;42598;53.802;-1.632;2023-01-29T05:13:05;5;5;
48887;PMS5003;42598;53.802;-1.632;2023-01-29T05:15:38;5;5;
48887;PMS5003;42598;53.802;-1.632;2023-01-29T05:18:07;5;4;
48887;PMS5003;42598;53.802;-1.632;2023-01-29T05:20:35;7;6;
48887;PMS5003;42598;53.802;-1.632;2023-01-29T05:23:08;6;5;
48887;PMS5003;42598;53.802;-1.632;2023-01-29T05:25:36;6;6;
48887;PMS5003;42598;53.802;-1.632;2023-01-29T05:28:03;7;7;
48887;PMS5003;42598;53.802;-1.632;2023-01-29T05:30:31;8;7;
48887;PMS5003;42598;53.802;-1.632;2023-01-29T05:32:59;7;7;
48887;PMS5003;42598;53.802;-1.632;2023-01-29T05:35:28;4;4;
48887;PMS5003;42598;53.802;-1.632;2023-01-29T05:37:56;8;8;
48887;PMS5003;42598;53.802;-1.632;2023-01-29T05:40:22;9;8;
48887;PMS5003;42598;53.802;-1.632;2023-01-29T05:42:50;7;7;
48887;PMS5003;42598;53.802;-1.632;2023-01-29T05:45:18;12;10;
48887;PMS5003;42598;53.802;-1.632;2023-01-29T05:47:46;7;7;
48887;PMS5003;42598;53.802;-1.632;2023-01-29T05:50:14;8;8;
48887;PMS5003;42598;53.802;-1.632;2023-01-29T05:52:42;7;7;
48887;PMS5003;42598;53.802;-1.632;2023-01-29T05:55:09;10;10;
48887;PMS5003;42598;53.802;-1.632;2023-01-29T05:57:38;9;9;
48887;PMS5003;42598;53.802;-1.632;2023-01-29T06:00:06;12;10;
48887;PMS5003;42598;53.802;-1.632;2023-01-29T06:02:34;12;9;
48887;PMS5003;42598;53.802;-1.632;2023-01-29T06:05:02;12;10;
48887;PMS5003;42598;53.802;-1.632;2023-01-29T06:07:29;14;12;
48887;PMS5003;42598;53.802;-1.632;2023-01-29T06:09:57;16;13;
48887;PMS5003;42598;53.802;-1.632;2023-01-29T06:12:23;12;12;
48887;PMS5003;42598;53.802;-1.632;2023-01-29T06:14:52;10;9;
48887;PMS5003;42598;53.802;-1.632;2023-01-29T06:17:20;10;9;
48887;PMS5003;42598;53.802;-1.632;2023-01-29T06:19:47;13;10;
48887;PMS5003;42598;53.802;-1.632;2023-01-29T06:22:13;9;9;
48887;PMS5003;42598;53.802;-1.632;2023-01-29T06:24:40;8;8;
48887;PMS5003;42598;53.802;-1.632;2023-01-29T06:27:07;10;9;
48887;PMS5003;42598;53.802;-1.632;2023-01-29T06:29:34;9;8;
48887;PMS5003;42598;53.802;-1.632;2023-01-29T06:32:01;10;10;
48887;PMS5003;42598;53.802;-1.632;2023-01-29T06:34:28;9;9;
48887;PMS5003;42598;53.802;-1.632;2023-01-29T06:36:56;11;9;
48887;PMS5003;42598;53.802;-1.632;2023-01-29T06:39:23;8;8;
48887;PMS5003;42598;53.802;-1.632;2023-01-29T06:41:50;12;12;
48887;PMS5003;42598;53.802;-1.632;2023-01-29T06:44:17;12;11;
48887;PMS5003;42598;53.802;-1.632;2023-01-29T06:46:44;9;8;
48887;PMS5003;42598;53.802;-1.632;2023-01-29T06:49:11;8;8;
48887;PMS5003;42598;53.802;-1.632;2023-01-29T06:51:38;6;5;
48887;PMS5003;42598;53.802;-1.632;2023-01-29T06:54:05;7;7;
48887;PMS5003;42598;53.802;-1.632;2023-01-29T06:56:33;7;7;
48887;PMS5003;42598;53.802;-1.632;2023-01-29T06:59:05;7;7;
48887;PMS5003;42598;53.802;-1.632;2023-01-29T07:01:32;7;7;
48887;PMS5003;42598;53.802;-1.632;2023-01-29T07:04:00;9;8;
48887;PMS5003;42598;53.802;-1.632;2023-01-29T07:06:27;7;5;
48887;PMS5003;42598;53.802;-1.632;2023-01-29T07:08:55;6;6;
48887;PMS5003;42598;53.802;-1.632;2023-01-29T07:11:22;6;6;
48887;PMS5003;42598;53.802;-1.632;2023-01-29T07:13:50;7;6;
48887;PMS5003;42598;53.802;-1.632;2023-01-29T07:16:16;6;6;
48887;PMS5003;42598;53.802;-1.632;2023-01-29T07:18:43;5;5;
48887;PMS5003;42598;53.802;-1.632;2023-01-29T07:21:10;5;5;
48887;PMS5003;42598;53.802;-1.632;2023-01-29T07:23:42;5;4;
48887;PMS5003;42598;53.802;-1.632;2023-01-29T07:26:09;5;5;
48887;PMS5003;42598;53.802;-1.632;2023-01-29T07:28:37;5;5;
48887;PMS5003;42598;53.802;-1.632;2023-01-29T07:31:05;5;5;
48887;PMS5003;42598;53.802;-1.632;2023-01-29T07:33:33;5;4;
48887;PMS5003;42598;53.802;-1.632;2023-01-29T07:36:01;4;4;
48887;PMS5003;42598;53.802;-1.632;2023-01-29T07:38:33;5;4;
48887;PMS5003;42598;53.802;-1.632;2023-01-29T07:40:59;5;5;
48887;PMS5003;42598;53.802;-1.632;2023-01-29T07:43:26;3;3;
48887;PMS5003;42598;53.802;-1.632;2023-01-29T07:45:54;4;4;
48887;PMS5003;42598;53.802;-1.632;2023-01-29T07:48:21;7;4;
48887;PMS5003;42598;53.802;-1.632;2023-01-29T07:50:53;4;4;
48887;PMS5003;42598;53.802;-1.632;2023-01-29T07:53:20;4;3;
48887;PMS5003;42598;53.802;-1.632;2023-01-29T07:55:48;4;3;
48887;PMS5003;42598;53.802;-1.632;2023-01-29T07:58:15;3;3;
48887;PMS5003;42598;53.802;-1.632;2023-01-29T08:00:43;4;3;
48887;PMS5003;42598;53.802;-1.632;2023-01-29T08:03:11;3;2;
48887;PMS5003;42598;53.802;-1.632;2023-01-29T08:05:40;1;1;
48887;PMS5003;42598;53.802;-1.632;2023-01-29T08:08:08;3;2;
48887;PMS5003;42598;53.802;-1.632;2023-01-29T08:10:36;3;2;
48887;PMS5003;42598;53.802;-1.632;2023-01-29T08:13:05;2;1;
48887;PMS5003;42598;53.802;-1.632;2023-01-29T08:15:33;3;3;
48887;PMS5003;42598;53.802;-1.632;2023-01-29T08:18:05;2;2;
48887;PMS5003;42598;53.802;-1.632;2023-01-29T08:20:32;3;2;
48887;PMS5003;42598;53.802;-1.632;2023-01-29T08:23:00;2;2;
48887;PMS5003;42598;53.802;-1.632;2023-01-29T08:25:31;3;2;
48887;PMS5003;42598;53.802;-1.632;2023-01-29T08:27:59;3;3;
48887;PMS5003;42598;53.802;-1.632;2023-01-29T08:30:27;2;2;
48887;PMS5003;42598;53.802;-1.632;2023-01-29T08:32:55;3;3;
48887;PMS5003;42598;53.802;-1.632;2023-01-29T08:35:23;3;3;
48887;PMS5003;42598;53.802;-1.632;2023-01-29T08:37:51;2;2;
48887;PMS5003;42598;53.802;-1.632;2023-01-29T08:40:19;2;2;
48887;PMS5003;42598;53.802;-1.632;2023-01-29T08:42:47;3;3;
48887;PMS5003;42598;53.802;-1.632;2023-01-29T08:45:15;3;3;
48887;PMS5003;42598;53.802;-1.632;2023-01-29T08:47:44;4;3;
48887;PMS5003;42598;53.802;-1.632;2023-01-29T08:50:14;6;5;
48887;PMS5003;42598;53.802;-1.632;2023-01-29T08:52:41;3;3;
48887;PMS5003;42598;53.802;-1.632;2023-01-29T08:55:09;3;3;
48887;PMS5003;42598;53.802;-1.632;2023-01-29T08:57:37;3;3;
48887;PMS5003;42598;53.802;-1.632;2023-01-29T09:00:06;3;3;
48887;PMS5003;42598;53.802;-1.632;2023-01-29T09:02:34;3;3;
48887;PMS5003;42598;53.802;-1.632;2023-01-29T09:05:01;2;2;
48887;PMS5003;42598;53.802;-1.632;2023-01-29T09:07:27;4;4;
48887;PMS5003;42598;53.802;-1.632;2023-01-29T09:10:00;4;2;
48887;PMS5003;42598;53.802;-1.632;2023-01-29T09:12:28;2;2;
48887;PMS5003;42598;53.802;-1.632;2023-01-29T09:14:55;2;2;
48887;PMS5003;42598;53.802;-1.632;2023-01-29T09:17:23;3;3;
48887;PMS5003;42598;53.802;-1.632;2023-01-29T09:19:50;3;3;
48887;PMS5003;42598;53.802;-1.632;2023-01-29T09:22:17;2;2;
48887;PMS5003;42598;53.802;-1.632;2023-01-29T09:24:45;5;3;
48887;PMS5003;42598;53.802;-1.632;2023-01-29T09:27:13;5;5;
48887;PMS5003;42598;53.802;-1.632;2023-01-29T09:29:40;4;3;
48887;PMS5003;42598;53.802;-1.632;2023-01-29T09:32:07;3;3;
48887;PMS5003;42598;53.802;-1.632;2023-01-29T09:34:34;11;9;
48887;PMS5003;42598;53.802;-1.632;2023-01-29T09:37:01;5;5;
48887;PMS5003;42598;53.802;-1.632;2023-01-29T09:39:29;6;5;
48887;PMS5003;42598;53.802;-1.632;2023-01-29T09:41:58;5;4;
48887;PMS5003;42598;53.802;-1.632;2023-01-29T09:44:41;8;6;
48887;PMS5003;42598;53.802;-1.632;2023-01-29T09:47:18;5;5;
48887;PMS5003;42598;53.802;-1.632;2023-01-29T09:49:49;6;6;
48887;PMS5003;42598;53.802;-1.632;2023-01-29T09:52:23;7;6;
48887;PMS5003;42598;53.802;-1.632;2023-01-29T09:54:54;7;6;
48887;PMS5003;42598;53.802;-1.632;2023-01-29T09:57:28;3;3;
48887;PMS5003;42598;53.802;-1.632;2023-01-29T10:00:04;7;6;
48887;PMS5003;42598;53.802;-1.632;2023-01-29T10:02:45;6;5;
48887;PMS5003;42598;53.802;-1.632;2023-01-29T10:05:25;4;4;
48887;PMS5003;42598;53.802;-1.632;2023-01-29T10:08:11;4;3;
48887;PMS5003;42598;53.802;-1.632;2023-01-29T10:11:00;4;4;
48887;PMS5003;42598;53.802;-1.632;2023-01-29T10:13:39;4;4;
48887;PMS5003;42598;53.802;-1.632;2023-01-29T10:16:21;5;5;
48887;PMS5003;42598;53.802;-1.632;2023-01-29T10:19:05;4;4;
48887;PMS5003;42598;53.802;-1.632;2023-01-29T10:21:49;5;4;
48887;PMS5003;42598;53.802;-1.632;2023-01-29T10:24:29;4;4;
48887;PMS5003;42598;53.802;-1.632;2023-01-29T10:27:02;4;4;
48887;PMS5003;42598;53.802;-1.632;2023-01-29T10:29:39;3;3;
48887;PMS5003;42598;53.802;-1.632;2023-01-29T10:32:10;4;3;
48887;PMS5003;42598;53.802;-1.632;2023-01-29T10:34:44;3;3;
48887;PMS5003;42598;53.802;-1.632;2023-01-29T10:37:15;3;3;
48887;PMS5003;42598;53.802;-1.632;2023-01-29T10:39:45;4;3;
48887;PMS5003;42598;53.802;-1.632;2023-01-29T10:42:14;5;4;
48887;PMS5003;42598;53.802;-1.632;2023-01-29T10:44:50;2;2;
48887;PMS5003;42598;53.802;-1.632;2023-01-29T10:48:03;5;4;
48887;PMS5003;42598;53.802;-1.632;2023-01-29T10:50:49;4;4;
48887;PMS5003;42598;53.802;-1.632;2023-01-29T10:53:24;4;3;
48887;PMS5003;42598;53.802;-1.632;2023-01-29T10:55:59;4;4;
48887;PMS5003;42598;53.802;-1.632;2023-01-29T10:58:38;2;2;
48887;PMS5003;42598;53.802;-1.632;2023-01-29T11:01:10;2;2;
48887;PMS5003;42598;53.802;-1.632;2023-01-29T11:03:38;2;2;
48887;PMS5003;42598;53.802;-1.632;2023-01-29T11:06:09;2;2;
48887;PMS5003;42598;53.802;-1.632;2023-01-29T11:08:45;4;4;
48887;PMS5003;42598;53.802;-1.632;2023-01-29T11:11:19;4;4;
48887;PMS5003;42598;53.802;-1.632;2023-01-29T11:13:52;2;2;
48887;PMS5003;42598;53.802;-1.632;2023-01-29T11:16:23;3;2;
48887;PMS5003;42598;53.802;-1.632;2023-01-29T11:18:52;3;1;
48887;PMS5003;42598;53.802;-1.632;2023-01-29T11:21:22;3;3;
48887;PMS5003;42598;53.802;-1.632;2023-01-29T11:24:03;1;1;
48887;PMS5003;42598;53.802;-1.632;2023-01-29T11:26:32;3;2;
48887;PMS5003;42598;53.802;-1.632;2023-01-29T11:29:03;2;2;
48887;PMS5003;42598;53.802;-1.632;2023-01-29T11:31:34;1;1;
48887;PMS5003;42598;53.802;-1.632;2023-01-29T11:34:04;2;2;
48887;PMS5003;42598;53.802;-1.632;2023-01-29T11:36:42;3;2;
48887;PMS5003;42598;53.802;-1.632;2023-01-29T11:39:12;2;2;
48887;PMS5003;42598;53.802;-1.632;2023-01-29T11:41:46;2;1;
48887;PMS5003;42598;53.802;-1.632;2023-01-29T11:44:19;2;2;
48887;PMS5003;42598;53.802;-1.632;2023-01-29T11:46:52;1;1;
48887;PMS5003;42598;53.802;-1.632;2023-01-29T11:49:25;2;2;
48887;PMS5003;42598;53.802;-1.632;2023-01-29T11:52:03;2;1;
48887;PMS5003;42598;53.802;-1.632;2023-01-29T11:54:35;3;3;
48887;PMS5003;42598;53.802;-1.632;2023-01-29T11:57:26;3;3;
48887;PMS5003;42598;53.802;-1.632;2023-01-29T11:59:56;4;2;
48887;PMS5003;42598;53.802;-1.632;2023-01-29T12:02:29;3;2;
48887;PMS5003;42598;53.802;-1.632;2023-01-29T12:05:01;2;1;
48887;PMS5003;42598;53.802;-1.632;2023-01-29T12:07:31;1;1;
48887;PMS5003;42598;53.802;-1.632;2023-01-29T12:10:01;2;2;
48887;PMS5003;42598;53.802;-1.632;2023-01-29T12:12:30;3;3;
48887;PMS5003;42598;53.802;-1.632;2023-01-29T12:15:03;3;3;
48887;PMS5003;42598;53.802;-1.632;2023-01-29T12:17:39;5;4;
48887;PMS5003;42598;53.802;-1.632;2023-01-29T12:20:11;2;2;
48887;PMS5003;42598;53.802;-1.632;2023-01-29T12:22:44;2;2;
48887;PMS5003;42598;53.802;-1.632;2023-01-29T12:25:17;4;3;
48887;PMS5003;42598;53.802;-1.632;2023-01-29T12:27:52;2;2;
48887;PMS5003;42598;53.802;-1.632;2023-01-29T12:30:27;2;2;
48887;PMS5003;42598;53.802;-1.632;2023-01-29T12:33:02;4;3;
48887;PMS5003;42598;53.802;-1.632;2023-01-29T12:35:37;4;3;
48887;PMS5003;42598;53.802;-1.632;2023-01-29T12:38:11;3;2;
48887;PMS5003;42598;53.802;-1.632;2023-01-29T12:40:43;2;2;
48887;PMS5003;42598;53.802;-1.632;2023-01-29T12:43:15;2;2;
48887;PMS5003;42598;53.802;-1.632;2023-01-29T12:45:45;4;3;
48887;PMS5003;42598;53.802;-1.632;2023-01-29T12:48:19;3;3;
48887;PMS5003;42598;53.802;-1.632;2023-01-29T12:50:50;5;3;
48887;PMS5003;42598;53.802;-1.632;2023-01-29T12:53:23;2;2;
48887;PMS5003;42598;53.802;-1.632;2023-01-29T12:55:55;2;2;
48887;PMS5003;42598;53.802;-1.632;2023-01-29T12:58:27;2;2;
48887;PMS5003;42598;53.802;-1.632;2023-01-29T13:01:02;5;4;
48887;PMS5003;42598;53.802;-1.632;2023-01-29T13:03:38;4;4;
48887;PMS5003;42598;53.802;-1.632;2023-01-29T13:06:16;2;2;
48887;PMS5003;42598;53.802;-1.632;2023-01-29T13:08:47;3;3;
48887;PMS5003;42598;53.802;-1.632;2023-01-29T13:11:18;5;4;
48887;PMS5003;42598;53.802;-1.632;2023-01-29T13:13:51;2;2;
48887;PMS5003;42598;53.802;-1.632;2023-01-29T13:16:22;2;2;
48887;PMS5003;42598;53.802;-1.632;2023-01-29T13:18:53;4;4;
48887;PMS5003;42598;53.802;-1.632;2023-01-29T13:21:24;3;3;
48887;PMS5003;42598;53.802;-1.632;2023-01-29T13:23:55;3;3;
48887;PMS5003;42598;53.802;-1.632;2023-01-29T13:26:27;3;3;
48887;PMS5003;42598;53.802;-1.632;2023-01-29T13:28:53;3;3;
48887;PMS5003;42598;53.802;-1.632;2023-01-29T13:31:23;4;3;
48887;PMS5003;42598;53.802;-1.632;2023-01-29T13:33:57;1;1;
48887;PMS5003;42598;53.802;-1.632;2023-01-29T13:36:33;2;2;
48887;PMS5003;42598;53.802;-1.632;2023-01-29T13:39:06;2;2;
48887;PMS5003;42598;53.802;-1.632;2023-01-29T13:41:41;3;3;
48887;PMS5003;42598;53.802;-1.632;2023-01-29T13:44:17;2;2;
48887;PMS5003;42598;53.802;-1.632;2023-01-29T13:46:48;2;2;
48887;PMS5003;42598;53.802;-1.632;2023-01-29T13:49:22;3;2;
48887;PMS5003;42598;53.802;-1.632;2023-01-29T13:51:52;2;2;
48887;PMS5003;42598;53.802;-1.632;2023-01-29T13:54:22;2;2;
48887;PMS5003;42598;53.802;-1.632;2023-01-29T13:56:56;3;3;
48887;PMS5003;42598;53.802;-1.632;2023-01-29T13:59:47;4;4;
48887;PMS5003;42598;53.802;-1.632;2023-01-29T14:02:21;3;3;
48887;PMS5003;42598;53.802;-1.632;2023-01-29T14:04:49;5;5;
48887;PMS5003;42598;53.802;-1.632;2023-01-29T14:07:50;6;6;
48887;PMS5003;42598;53.802;-1.632;2023-01-29T14:10:18;6;6;
48887;PMS5003;42598;53.802;-1.632;2023-01-29T14:12:49;8;8;
48887;PMS5003;42598;53.802;-1.632;2023-01-29T14:15:18;9;9;
48887;PMS5003;42598;53.802;-1.632;2023-01-29T14:17:53;10;9;
48887;PMS5003;42598;53.802;-1.632;2023-01-29T14:20:25;10;10;
48887;PMS5003;42598;53.802;-1.632;2023-01-29T14:23:06;11;9;
48887;PMS5003;42598;53.802;-1.632;2023-01-29T14:25:45;10;10;
48887;PMS5003;42598;53.802;-1.632;2023-01-29T14:28:14;10;10;
48887;PMS5003;42598;53.802;-1.632;2023-01-29T14:30:46;8;8;
48887;PMS5003;42598;53.802;-1.632;2023-01-29T14:33:21;10;8;
48887;PMS5003;42598;53.802;-1.632;2023-01-29T14:35:52;25;24;
48887;PMS5003;42598;53.802;-1.632;2023-01-29T14:38:22;9;8;
48887;PMS5003;42598;53.802;-1.632;2023-01-29T14:40:52;12;11;
48887;PMS5003;42598;53.802;-1.632;2023-01-29T14:43:30;9;8;
48887;PMS5003;42598;53.802;-1.632;2023-01-29T14:46:39;7;7;
48887;PMS5003;42598;53.802;-1.632;2023-01-29T14:49:08;10;9;
48887;PMS5003;42598;53.802;-1.632;2023-01-29T14:51:37;9;9;
48887;PMS5003;42598;53.802;-1.632;2023-01-29T14:54:15;9;9;
48887;PMS5003;42598;53.802;-1.632;2023-01-29T14:56:51;10;9;
48887;PMS5003;42598;53.802;-1.632;2023-01-29T14:59:26;10;10;
48887;PMS5003;42598;53.802;-1.632;2023-01-29T15:02:01;15;12;
48887;PMS5003;42598;53.802;-1.632;2023-01-29T15:04:40;28;25;
48887;PMS5003;42598;53.802;-1.632;2023-01-29T15:07:16;18;18;
48887;PMS5003;42598;53.802;-1.632;2023-01-29T15:09:51;13;11;
48887;PMS5003;42598;53.802;-1.632;2023-01-29T15:12:24;15;14;
48887;PMS5003;42598;53.802;-1.632;2023-01-29T15:14:59;10;10;
48887;PMS5003;42598;53.802;-1.632;2023-01-29T15:17:35;8;7;
48887;PMS5003;42598;53.802;-1.632;2023-01-29T15:20:39;8;8;
48887;PMS5003;42598;53.802;-1.632;2023-01-29T15:23:24;9;8;
48887;PMS5003;42598;53.802;-1.632;2023-01-29T15:25:53;6;6;
48887;PMS5003;42598;53.802;-1.632;2023-01-29T15:28:23;8;7;
48887;PMS5003;42598;53.802;-1.632;2023-01-29T15:30:52;8;6;
48887;PMS5003;42598;53.802;-1.632;2023-01-29T15:33:22;4;4;
48887;PMS5003;42598;53.802;-1.632;2023-01-29T15:35:49;7;6;
48887;PMS5003;42598;53.802;-1.632;2023-01-29T15:38:23;9;8;
48887;PMS5003;42598;53.802;-1.632;2023-01-29T15:40:51;6;6;
48887;PMS5003;42598;53.802;-1.632;2023-01-29T15:43:20;7;6;
48887;PMS5003;42598;53.802;-1.632;2023-01-29T15:45:49;7;6;
48887;PMS5003;42598;53.802;-1.632;2023-01-29T15:48:19;7;7;
48887;PMS5003;42598;53.802;-1.632;2023-01-29T15:50:55;9;8;
48887;PMS5003;42598;53.802;-1.632;2023-01-29T15:53:26;7;7;
48887;PMS5003;42598;53.802;-1.632;2023-01-29T15:55:56;5;5;
48887;PMS5003;42598;53.802;-1.632;2023-01-29T15:58:26;6;6;
48887;PMS5003;42598;53.802;-1.632;2023-01-29T16:00:55;9;8;
48887;PMS5003;42598;53.802;-1.632;2023-01-29T16:03:25;9;7;
48887;PMS5003;42598;53.802;-1.632;2023-01-29T16:05:56;8;7;
48887;PMS5003;42598;53.802;-1.632;2023-01-29T16:08:24;8;7;
48887;PMS5003;42598;53.802;-1.632;2023-01-29T16:10:58;7;7;
48887;PMS5003;42598;53.802;-1.632;2023-01-29T16:13:28;8;8;
48887;PMS5003;42598;53.802;-1.632;2023-01-29T16:15:59;9;8;
48887;PMS5003;42598;53.802;-1.632;2023-01-29T16:18:28;11;9;
48887;PMS5003;42598;53.802;-1.632;2023-01-29T16:20:58;7;6;
48887;PMS5003;42598;53.802;-1.632;2023-01-29T16:23:28;8;6;
48887;PMS5003;42598;53.802;-1.632;2023-01-29T16:26:01;8;7;
48887;PMS5003;42598;53.802;-1.632;2023-01-29T16:28:31;7;7;
48887;PMS5003;42598;53.802;-1.632;2023-01-29T16:30:58;7;7;
48887;PMS5003;42598;53.802;-1.632;2023-01-29T16:33:29;9;9;
48887;PMS5003;42598;53.802;-1.632;2023-01-29T16:36:00;8;7;
48887;PMS5003;42598;53.802;-1.632;2023-01-29T16:38:29;10;9;
48887;PMS5003;42598;53.802;-1.632;2023-01-29T16:41:04;6;6;
48887;PMS5003;42598;53.802;-1.632;2023-01-29T16:43:45;8;8;
48887;PMS5003;42598;53.802;-1.632;2023-01-29T16:46:16;8;8;
48887;PMS5003;42598;53.802;-1.632;2023-01-29T16:48:46;8;7;
48887;PMS5003;42598;53.802;-1.632;2023-01-29T16:51:14;7;7;
48887;PMS5003;42598;53.802;-1.632;2023-01-29T16:53:56;7;7;
48887;PMS5003;42598;53.802;-1.632;2023-01-29T16:56:26;9;9;
48887;PMS5003;42598;53.802;-1.632;2023-01-29T16:58:56;8;8;